Time;durP1;ratioP1;P1;durP2;ratioP2;P2;SDS_P1;SDS_P2;PMS_P1;PMS_P2;Temp;Humidity;BMP_temperature;BMP_pressure;BME280_temperature;BME280_humidity;BME280_pressure;Samples;Min_cycle;Max_cycle;Signal;HPM_P1;HPM_P2
2021/08/10 00:01:59;;;;;;;19.52;15.48;;;;;;;23.81;83.38;100534.17;1858089;77;21821;-71
2021/08/10 00:04:26;;;;;;;23.32;17.27;;;;;;;23.81;83.65;100539.53;1858607;77;21383;-71
2021/08/10 00:06:52;;;;;;;23.55;16.30;;;;;;;23.81;83.76;100538.20;1858131;77;20889;-72
2021/08/10 00:09:19;;;;;;;19.40;15.83;;;;;;;23.81;83.81;100537.37;1858214;77;20878;-72
2021/08/10 00:11:46;;;;;;;24.75;15.90;;;;;;;23.79;83.87;100542.92;1858300;77;20949;-71
2021/08/10 00:14:13;;;;;;;20.60;16.45;;;;;;;23.78;83.82;100535.89;1858249;77;21488;-70
2021/08/10 00:16:42;;;;;;;25.25;17.40;;;;;;;23.77;83.98;100532.90;1858188;77;20901;-71
2021/08/10 00:19:10;;;;;;;20.50;16.05;;;;;;;23.76;84.16;100529.88;1858093;77;20929;-71
2021/08/10 00:21:37;;;;;;;22.85;17.30;;;;;;;23.74;84.22;100530.02;1858097;77;20846;-70
2021/08/10 00:24:04;;;;;;;17.02;14.68;;;;;;;23.74;84.31;100530.53;1858235;77;20901;-71
2021/08/10 00:26:32;;;;;;;19.73;16.30;;;;;;;23.73;84.35;100524.86;1858280;77;21109;-72
2021/08/10 00:29:04;;;;;;;21.20;15.68;;;;;;;23.71;84.42;100523.70;1858308;77;20905;-71
2021/08/10 00:31:31;;;;;;;22.27;16.70;;;;;;;23.70;84.61;100523.38;1858081;77;20917;-71
2021/08/10 00:33:58;;;;;;;24.00;15.15;;;;;;;23.71;84.72;100525.55;1858283;77;20862;-70
2021/08/10 00:36:25;;;;;;;18.05;14.38;;;;;;;23.68;84.75;100525.41;1858249;77;20826;-72
2021/08/10 00:38:53;;;;;;;17.77;15.60;;;;;;;23.67;84.66;100524.23;1858183;77;21191;-71
2021/08/10 00:41:21;;;;;;;20.52;15.40;;;;;;;23.65;84.67;100522.25;1858131;77;20834;-71
2021/08/10 00:43:51;;;;;;;19.10;14.75;;;;;;;23.62;84.82;100524.78;1858379;76;20913;-71
2021/08/10 00:46:23;;;;;;;19.23;15.25;;;;;;;23.59;84.92;100523.30;1857958;76;20905;-72
2021/08/10 00:48:51;;;;;;;22.67;14.47;;;;;;;23.57;85.05;100520.48;1858163;77;20972;-72
2021/08/10 00:51:20;;;;;;;20.43;14.95;;;;;;;23.54;85.19;100524.36;1858191;77;21043;-72
2021/08/10 00:53:50;;;;;;;16.73;12.68;;;;;;;23.51;85.30;100518.52;1857761;77;20905;-71
2021/08/10 00:56:19;;;;;;;15.20;13.40;;;;;;;23.49;85.20;100525.37;1858749;77;20893;-71
2021/08/10 00:58:49;;;;;;;15.38;12.47;;;;;;;23.47;85.13;100517.20;1858111;77;20964;-72
2021/08/10 01:01:16;;;;;;;16.97;12.03;;;;;;;23.44;84.94;100513.55;1858398;77;21039;-72
2021/08/10 01:03:44;;;;;;;17.62;13.45;;;;;;;23.41;85.00;100513.41;1858161;76;22149;-73
2021/08/10 01:06:24;;;;;;;18.75;12.25;;;;;;;23.37;85.12;100512.92;1857942;77;20933;-73
2021/08/10 01:09:02;;;;;;;16.07;12.45;;;;;;;23.35;85.19;100507.42;1858261;77;21371;-72
2021/08/10 01:11:44;;;;;;;16.45;12.95;;;;;;;23.31;85.37;100510.12;1858128;77;20967;-73
2021/08/10 01:14:35;;;;;;;18.50;13.20;;;;;;;23.29;85.49;100510.30;1858261;77;20956;-73
2021/08/10 01:17:07;;;;;;;14.25;12.25;;;;;;;23.29;85.42;100512.97;1839397;77;21338;-73
2021/08/10 01:20:00;;;;;;;16.93;11.40;;;;;;;23.28;85.32;100497.11;1858213;77;20932;-73
2021/08/10 01:22:29;;;;;;;12.25;10.72;;;;;;;23.25;85.18;100504.14;1858672;77;20913;-72
2021/08/10 01:25:34;;;;;;;15.35;11.30;;;;;;;23.22;85.16;100505.33;1858155;77;21465;-72
2021/08/10 01:28:27;;;;;;;19.02;11.68;;;;;;;23.21;85.25;100512.19;1827982;77;20952;-72
2021/08/10 01:31:23;;;;;;;13.88;12.30;;;;;;;23.18;85.20;100510.70;1858080;77;21969;-72
2021/08/10 01:33:57;;;;;;;16.45;11.90;;;;;;;23.18;85.29;100509.37;1858355;77;20884;-72
2021/08/10 01:36:25;;;;;;;11.93;10.70;;;;;;;23.15;85.35;100506.55;1857911;77;21351;-72
2021/08/10 01:38:56;;;;;;;13.22;11.30;;;;;;;23.15;85.28;100501.20;1827748;77;20917;-72
2021/08/10 01:41:24;;;;;;;14.03;11.15;;;;;;;23.14;85.15;100505.37;1858402;77;20873;-72
2021/08/10 01:43:54;;;;;;;14.85;10.85;;;;;;;23.12;85.11;100505.58;1858358;77;21020;-72
2021/08/10 01:46:23;;;;;;;13.25;10.60;;;;;;;23.11;84.85;100514.59;1858219;77;20917;-72
2021/08/10 01:48:50;;;;;;;13.00;10.32;;;;;;;23.09;84.31;100517.95;1858666;77;21383;-72
2021/08/10 01:51:17;;;;;;;12.80;9.63;;;;;;;23.08;84.25;100512.28;1858317;77;20838;-72
2021/08/10 01:53:44;;;;;;;14.68;9.65;;;;;;;23.08;84.38;100513.62;1858072;77;20859;-72
2021/08/10 01:56:11;;;;;;;12.28;10.88;;;;;;;23.08;84.49;100512.80;1858314;77;21955;-72
2021/08/10 01:58:40;;;;;;;13.93;10.85;;;;;;;23.07;84.71;100511.11;1827115;77;21457;-72
2021/08/10 02:01:08;;;;;;;12.25;10.55;;;;;;;23.06;84.77;100518.83;1858251;77;20921;-72
2021/08/10 02:03:37;;;;;;;10.78;9.75;;;;;;;23.04;84.69;100520.84;1858385;77;20916;-73
2021/08/10 02:06:06;;;;;;;14.30;9.53;;;;;;;23.04;84.65;100521.66;1858126;77;21381;-72
2021/08/10 02:08:35;;;;;;;15.72;9.40;;;;;;;23.03;84.61;100523.17;1858365;77;21842;-71
2021/08/10 02:11:03;;;;;;;14.15;10.82;;;;;;;23.02;84.68;100520.17;1801401;77;20908;-73
2021/08/10 02:13:32;;;;;;;14.13;10.30;;;;;;;22.99;84.83;100517.33;1858344;76;20917;-73
2021/08/10 02:15:59;;;;;;;12.93;10.45;;;;;;;22.99;85.05;100511.97;1858459;77;21422;-71
2021/08/10 02:18:27;;;;;;;21.87;12.53;;;;;;;22.97;85.06;100512.14;1858263;77;20865;-72
2021/08/10 02:21:03;;;;;;;18.52;12.18;;;;;;;22.95;85.13;100508.80;1857021;77;22005;-72
2021/08/10 02:23:31;;;;;;;13.48;10.95;;;;;;;22.94;85.17;100503.62;1858232;77;20841;-73
2021/08/10 02:25:58;;;;;;;11.78;10.32;;;;;;;22.92;85.29;100509.17;1827810;77;20929;-73
2021/08/10 02:28:27;;;;;;;12.60;10.00;;;;;;;22.90;85.36;100508.52;1858145;77;20885;-73
2021/08/10 02:30:54;;;;;;;16.05;12.03;;;;;;;22.90;85.51;100503.64;1858619;77;20885;-72
2021/08/10 02:33:24;;;;;;;15.25;11.85;;;;;;;22.87;85.60;100499.48;1857488;77;21144;-71
2021/08/10 02:35:53;;;;;;;17.20;11.15;;;;;;;22.86;85.73;100501.02;1858156;76;20905;-72
2021/08/10 02:38:22;;;;;;;15.05;11.12;;;;;;;22.84;85.74;100504.37;1828705;77;20941;-71
2021/08/10 02:40:51;;;;;;;12.13;10.90;;;;;;;22.82;85.77;100500.52;1858681;76;21441;-73
2021/08/10 02:43:18;;;;;;;14.40;13.00;;;;;;;22.81;85.88;100514.05;1858199;77;20952;-72
2021/08/10 02:45:46;;;;;;;14.03;11.68;;;;;;;22.79;86.03;100508.91;1858558;77;21466;-73
2021/08/10 02:48:14;;;;;;;14.73;12.60;;;;;;;22.78;86.16;100508.55;1858116;77;20901;-73
2021/08/10 02:50:41;;;;;;;15.32;13.70;;;;;;;22.78;86.19;100505.88;1858560;77;21027;-72
2021/08/10 02:53:08;;;;;;;16.12;13.45;;;;;;;22.78;86.21;100515.75;1858072;77;20957;-73
2021/08/10 02:55:39;;;;;;;19.42;14.80;;;;;;;22.76;86.13;100510.57;1857992;77;21338;-72
2021/08/10 02:58:24;;;;;;;18.20;16.20;;;;;;;22.75;86.07;100512.93;1828231;77;21810;-72
2021/08/10 03:01:00;;;;;;;19.17;15.03;;;;;;;22.74;85.84;100508.09;1857898;76;20850;-72
2021/08/10 03:03:29;;;;;;;16.15;14.55;;;;;;;22.72;85.51;100503.42;1858828;77;20925;-73
2021/08/10 03:05:57;;;;;;;20.30;13.38;;;;;;;22.73;85.34;100506.92;1858649;76;20885;-71
2021/08/10 03:08:30;;;;;;;18.80;14.58;;;;;;;22.73;85.31;100508.26;1858528;77;21307;-72
2021/08/10 03:10:57;;;;;;;14.75;13.10;;;;;;;22.73;85.34;100514.94;1858383;77;21127;-73
2021/08/10 03:13:26;;;;;;;16.00;12.85;;;;;;;22.71;85.53;100509.75;1858358;77;20901;-72
2021/08/10 03:15:56;;;;;;;13.75;12.28;;;;;;;22.72;85.57;100523.95;1858310;76;20912;-73
2021/08/10 03:18:27;;;;;;;16.73;12.88;;;;;;;22.72;85.73;100520.80;1858165;77;20870;-72
2021/08/10 03:20:57;;;;;;;16.48;12.58;;;;;;;22.73;85.79;100521.63;1827782;77;21439;-72
2021/08/10 03:23:23;;;;;;;13.50;11.85;;;;;;;22.73;85.51;100521.11;1857982;77;21455;-71
2021/08/10 03:25:50;;;;;;;12.43;11.15;;;;;;;22.74;85.33;100522.80;1858157;77;20920;-72
2021/08/10 03:28:17;;;;;;;19.70;11.65;;;;;;;22.76;85.22;100519.92;1858126;76;21398;-72
2021/08/10 03:30:44;;;;;;;15.32;12.20;;;;;;;22.76;85.15;100519.41;1858182;77;20877;-72
2021/08/10 03:33:12;;;;;;;13.85;11.53;;;;;;;22.79;85.15;100525.42;1858224;77;20952;-72
2021/08/10 03:35:39;;;;;;;15.90;11.73;;;;;;;22.79;85.07;100523.61;1858119;77;21931;-71
2021/08/10 03:38:07;;;;;;;14.65;11.65;;;;;;;22.80;85.05;100524.44;1858052;77;20893;-71
2021/08/10 03:40:38;;;;;;;18.62;12.13;;;;;;;22.81;85.25;100515.39;1858258;76;20861;-73
2021/08/10 03:43:05;;;;;;;14.05;11.38;;;;;;;22.81;85.46;100518.06;1858415;76;20881;-73
2021/08/10 03:45:32;;;;;;;13.18;11.78;;;;;;;22.80;85.59;100519.91;1858129;76;20912;-72
2021/08/10 03:47:59;;;;;;;12.98;11.65;;;;;;;22.80;85.83;100518.58;1858199;76;21528;-72
2021/08/10 03:50:26;;;;;;;16.65;12.63;;;;;;;22.82;85.91;100517.90;1858167;77;21352;-72
2021/08/10 03:52:53;;;;;;;12.28;11.18;;;;;;;22.82;85.97;100524.58;1858368;77;21332;-72
2021/08/10 03:55:22;;;;;;;14.05;11.30;;;;;;;22.84;85.89;100527.09;1861389;77;20948;-72
2021/08/10 03:57:49;;;;;;;12.25;10.82;;;;;;;22.84;86.12;100522.57;1835382;77;21430;-72
2021/08/10 04:00:17;;;;;;;14.05;10.93;;;;;;;22.86;86.15;100522.41;1861685;77;21118;-71
2021/08/10 04:02:49;;;;;;;12.82;11.48;;;;;;;22.88;86.08;100523.06;1860910;77;20925;-71
2021/08/10 04:05:17;;;;;;;14.55;11.88;;;;;;;22.90;86.18;100524.55;1861419;77;20892;-72
2021/08/10 04:07:45;;;;;;;13.88;11.00;;;;;;;22.93;85.79;100522.03;1861434;77;21004;-72
2021/08/10 04:10:13;;;;;;;13.35;11.05;;;;;;;22.96;85.92;100525.17;1861591;77;20854;-72
2021/08/10 04:12:42;;;;;;;13.28;11.55;;;;;;;23.03;85.89;100529.34;1861389;77;21414;-72
2021/08/10 04:15:11;;;;;;;11.53;10.53;;;;;;;23.08;85.80;100530.19;1861634;77;20943;-72
2021/08/10 04:17:38;;;;;;;13.03;11.40;;;;;;;23.12;85.58;100526.13;1836153;77;20949;-73
2021/08/10 04:20:08;;;;;;;11.85;10.72;;;;;;;23.16;85.53;100526.09;1861468;77;20870;-72
2021/08/10 04:22:35;;;;;;;15.85;12.80;;;;;;;23.22;85.19;100528.59;1861577;77;20901;-72
2021/08/10 04:25:06;;;;;;;15.23;11.53;;;;;;;23.27;84.86;100528.88;1861513;77;20841;-72
2021/08/10 04:27:33;;;;;;;14.23;11.40;;;;;;;23.30;84.51;100522.68;1861404;77;20861;-72
2021/08/10 04:30:01;;;;;;;13.43;11.15;;;;;;;23.36;84.41;100525.13;1861836;77;20924;-72
2021/08/10 04:32:31;;;;;;;14.60;11.55;;;;;;;23.39;84.24;100522.13;1861716;77;20877;-73
2021/08/10 04:35:00;;;;;;;14.75;11.33;;;;;;;23.42;84.18;100520.92;1861446;77;21433;-72
2021/08/10 04:37:27;;;;;;;12.33;11.22;;;;;;;23.45;84.11;100521.38;1861457;77;21519;-73
2021/08/10 04:39:55;;;;;;;12.80;11.55;;;;;;;23.48;84.08;100522.38;1861793;77;20908;-73
2021/08/10 04:42:24;;;;;;;12.25;11.08;;;;;;;23.50;83.83;100516.34;1828599;77;20870;-73
2021/08/10 04:44:52;;;;;;;13.95;12.23;;;;;;;23.54;83.62;100519.00;1861389;77;21489;-73
2021/08/10 04:47:19;;;;;;;15.28;12.43;;;;;;;23.57;83.58;100516.47;1861459;77;21057;-73
2021/08/10 04:49:46;;;;;;;15.03;11.95;;;;;;;23.62;83.26;100511.91;1861782;77;21754;-73
2021/08/10 04:52:12;;;;;;;12.95;11.63;;;;;;;23.68;82.99;100511.16;1861392;77;20960;-73
2021/08/10 04:54:40;;;;;;;12.75;11.35;;;;;;;23.72;82.68;100507.97;1859250;77;20963;-72
2021/08/10 04:57:07;;;;;;;12.78;10.15;;;;;;;23.78;82.75;100508.59;1857987;77;20933;-71
2021/08/10 04:59:34;;;;;;;17.42;10.70;;;;;;;23.84;82.69;100507.05;1858397;77;20862;-73
2021/08/10 05:02:01;;;;;;;12.00;10.85;;;;;;;23.90;82.69;100501.45;1858027;76;21553;-71
2021/08/10 05:04:28;;;;;;;13.32;11.10;;;;;;;23.94;82.70;100500.91;1858029;77;20936;-71
2021/08/10 05:06:55;;;;;;;11.80;10.55;;;;;;;24.00;82.58;100500.19;1858406;77;20849;-71
2021/08/10 05:09:22;;;;;;;12.60;11.05;;;;;;;24.07;82.48;100498.95;1858112;76;20933;-72
2021/08/10 05:11:49;;;;;;;11.75;10.55;;;;;;;24.15;82.12;100496.19;1858043;77;21406;-72
2021/08/10 05:14:17;;;;;;;12.47;10.95;;;;;;;24.24;82.04;100506.31;1858091;77;21108;-72
2021/08/10 05:16:46;;;;;;;12.18;10.98;;;;;;;24.34;81.57;100500.67;1858237;77;21324;-72
2021/08/10 05:19:15;;;;;;;14.80;11.28;;;;;;;24.45;81.05;100505.56;1858098;76;20892;-72
2021/08/10 05:21:43;;;;;;;14.43;11.22;;;;;;;24.56;80.89;100497.59;1858687;77;20913;-73
2021/08/10 05:24:12;;;;;;;11.08;9.78;;;;;;;24.68;80.26;100503.30;1858678;77;20901;-72
2021/08/10 05:26:39;;;;;;;12.85;10.75;;;;;;;24.79;79.70;100494.28;1858193;77;21467;-73
2021/08/10 05:29:06;;;;;;;12.60;10.05;;;;;;;24.93;79.05;100499.28;1858163;77;20838;-71
2021/08/10 05:31:34;;;;;;;11.60;9.90;;;;;;;25.08;78.39;100499.73;1858499;77;20908;-71
2021/08/10 05:34:00;;;;;;;12.20;9.70;;;;;;;25.20;78.05;100493.72;1858218;76;21410;-73
2021/08/10 05:36:28;;;;;;;12.55;10.45;;;;;;;25.36;77.59;100489.95;1858656;77;20980;-72
2021/08/10 05:38:56;;;;;;;16.15;11.30;;;;;;;25.52;77.03;100489.36;1858325;77;21557;-73
2021/08/10 05:41:23;;;;;;;17.60;9.98;;;;;;;25.68;76.35;100489.59;1858467;77;20904;-73
2021/08/10 05:43:51;;;;;;;11.35;9.15;;;;;;;25.80;75.50;100492.08;1858216;77;20932;-71
2021/08/10 05:46:18;;;;;;;14.98;10.60;;;;;;;25.90;74.86;100489.93;1858589;76;20980;-71
2021/08/10 05:48:45;;;;;;;10.70;9.70;;;;;;;26.00;74.64;100493.60;1858295;77;20908;-71
2021/08/10 05:51:12;;;;;;;13.40;10.32;;;;;;;26.08;74.26;100487.23;1858313;77;21014;-72
2021/08/10 05:53:40;;;;;;;11.53;10.53;;;;;;;26.12;73.80;100484.47;1858275;77;21443;-72
2021/08/10 05:56:09;;;;;;;14.05;10.95;;;;;;;26.15;73.82;100482.23;1861683;77;20909;-72
2021/08/10 05:58:37;;;;;;;12.58;10.25;;;;;;;26.22;73.79;100491.16;1861702;77;20900;-71
2021/08/10 06:01:05;;;;;;;12.88;10.15;;;;;;;26.32;73.43;100491.30;1861579;77;20881;-73
2021/08/10 06:03:34;;;;;;;10.85;9.75;;;;;;;26.37;73.26;100492.38;1861574;77;21048;-71
2021/08/10 06:06:02;;;;;;;16.73;10.93;;;;;;;26.43;73.33;100492.91;1835923;77;20963;-72
2021/08/10 06:08:30;;;;;;;11.28;10.20;;;;;;;26.49;73.25;100494.50;1859837;77;20902;-72
2021/08/10 06:10:59;;;;;;;12.30;11.28;;;;;;;26.52;73.33;100495.44;1861619;77;21297;-74
2021/08/10 06:13:27;;;;;;;11.43;10.23;;;;;;;26.56;72.96;100499.42;1861586;77;20901;-73
2021/08/10 06:15:54;;;;;;;11.18;10.05;;;;;;;26.60;72.54;100503.38;1861470;77;21142;-74
2021/08/10 06:18:21;;;;;;;11.15;9.98;;;;;;;26.63;72.48;100505.14;1861826;77;20972;-74
2021/08/10 06:20:51;;;;;;;10.88;9.53;;;;;;;26.65;72.63;100503.08;1861946;77;20905;-74
2021/08/10 06:23:19;;;;;;;10.88;9.78;;;;;;;26.68;72.67;100505.91;1861699;77;21513;-73
2021/08/10 06:25:49;;;;;;;13.20;10.25;;;;;;;26.73;72.61;100505.30;1861653;77;21374;-74
2021/08/10 06:28:18;;;;;;;12.05;10.63;;;;;;;26.76;72.03;100499.51;1861606;77;21381;-75
2021/08/10 06:30:45;;;;;;;12.03;10.53;;;;;;;26.80;71.68;100502.94;1861590;77;20838;-75
2021/08/10 06:33:12;;;;;;;12.30;9.83;;;;;;;26.85;71.33;100500.98;1861857;77;20931;-74
2021/08/10 06:35:39;;;;;;;11.55;10.15;;;;;;;26.88;71.16;100502.77;1861431;77;21494;-75
2021/08/10 06:38:06;;;;;;;12.90;10.75;;;;;;;26.95;71.74;100500.63;1861504;77;20909;-74
2021/08/10 06:40:35;;;;;;;11.97;10.75;;;;;;;26.99;71.63;100500.50;1861235;77;21153;-75
2021/08/10 06:43:02;;;;;;;11.00;10.10;;;;;;;27.03;71.34;100495.03;1861513;77;21355;-74
2021/08/10 06:45:30;;;;;;;10.85;9.70;;;;;;;27.07;70.93;100495.77;1861413;77;20940;-74
2021/08/10 06:47:57;;;;;;;14.63;9.58;;;;;;;27.12;71.10;100492.98;1861859;77;21385;-74
2021/08/10 06:50:26;;;;;;;11.57;10.35;;;;;;;27.14;70.99;100494.44;1861035;77;20897;-74
2021/08/10 06:52:54;;;;;;;11.48;10.38;;;;;;;27.18;71.03;100493.00;1861938;77;21766;-74
2021/08/10 06:55:22;;;;;;;12.68;10.05;;;;;;;27.23;70.63;100490.55;1859150;77;21402;-74
2021/08/10 06:57:50;;;;;;;11.22;10.15;;;;;;;27.26;70.38;100492.84;1858444;77;21506;-74
2021/08/10 07:00:18;;;;;;;11.08;9.98;;;;;;;27.30;70.18;100494.59;1858185;76;20983;-73
2021/08/10 07:02:46;;;;;;;13.15;10.18;;;;;;;27.32;70.15;100499.78;1858280;77;20865;-72
2021/08/10 07:05:15;;;;;;;10.43;9.40;;;;;;;27.34;70.51;100501.23;1858470;77;21510;-74
2021/08/10 07:07:42;;;;;;;13.18;10.90;;;;;;;27.36;70.24;100507.24;1858076;77;20874;-72
2021/08/10 07:10:09;;;;;;;16.87;9.78;;;;;;;27.39;69.72;100506.00;1858277;77;20987;-73
2021/08/10 07:12:37;;;;;;;10.88;9.73;;;;;;;27.43;69.49;100511.29;1858060;76;21347;-75
2021/08/10 07:15:06;;;;;;;11.33;9.48;;;;;;;27.45;69.46;100503.31;1858432;77;20869;-74
2021/08/10 07:17:33;;;;;;;13.93;9.93;;;;;;;27.45;69.50;100497.92;1858214;77;21136;-74
2021/08/10 07:20:01;;;;;;;14.53;9.90;;;;;;;27.52;69.39;100499.27;1858140;76;20917;-75
2021/08/10 07:22:30;;;;;;;14.40;11.25;;;;;;;27.56;69.36;100497.01;1858361;76;20862;-76
2021/08/10 07:24:58;;;;;;;11.63;10.28;;;;;;;27.59;69.21;100503.31;1858108;76;20928;-75
2021/08/10 07:27:26;;;;;;;12.88;10.88;;;;;;;27.58;69.80;100505.19;1857873;77;21050;-75
2021/08/10 07:29:54;;;;;;;12.85;9.73;;;;;;;27.56;70.27;100501.05;1858363;77;21398;-75
2021/08/10 07:32:22;;;;;;;12.93;10.15;;;;;;;27.55;70.77;100506.14;1857957;77;20968;-74
2021/08/10 07:34:50;;;;;;;12.00;10.15;;;;;;;27.55;70.72;100503.45;1858425;77;20900;-75
2021/08/10 07:37:18;;;;;;;13.72;9.18;;;;;;;27.51;70.41;100496.28;1857858;77;21438;-74
2021/08/10 07:39:45;;;;;;;9.95;9.05;;;;;;;27.51;70.43;100502.20;1858485;76;20889;-75
2021/08/10 07:42:13;;;;;;;10.93;9.80;;;;;;;27.51;70.77;100500.33;1857987;77;21047;-75
2021/08/10 07:44:40;;;;;;;11.18;9.75;;;;;;;27.53;70.48;100498.78;1858340;76;20921;-76
2021/08/10 07:47:08;;;;;;;12.00;10.28;;;;;;;27.54;69.77;100495.86;1858211;77;21406;-75
2021/08/10 07:49:35;;;;;;;13.55;10.30;;;;;;;27.58;69.54;100497.63;1858442;77;20845;-74
2021/08/10 07:52:04;;;;;;;11.12;9.60;;;;;;;27.62;69.30;100493.49;1858226;76;21086;-75
2021/08/10 07:54:32;;;;;;;11.45;10.38;;;;;;;27.65;69.06;100487.16;1858093;76;21520;-75
2021/08/10 07:57:00;;;;;;;10.53;9.48;;;;;;;27.72;69.03;100487.16;1858029;77;21506;-75
2021/08/10 07:59:27;;;;;;;12.10;10.95;;;;;;;27.81;69.15;100489.12;1858203;77;21093;-75
2021/08/10 08:01:55;;;;;;;11.43;9.78;;;;;;;27.92;69.39;100491.73;1858241;77;20838;-74
2021/08/10 08:04:23;;;;;;;11.40;10.25;;;;;;;28.05;69.24;100493.06;1858303;77;20979;-79
2021/08/10 08:06:51;;;;;;;13.15;9.58;;;;;;;28.19;68.39;100489.31;1858283;77;20925;-79
2021/08/10 08:09:19;;;;;;;16.50;10.85;;;;;;;28.36;68.08;100481.57;1858096;77;21476;-78
2021/08/10 08:11:46;;;;;;;16.55;10.32;;;;;;;28.50;67.72;100482.38;1858470;77;20826;-78
2021/08/10 08:14:16;;;;;;;24.63;10.00;;;;;;;28.66;67.16;100478.39;1858119;77;21457;-79
2021/08/10 08:16:44;;;;;;;10.58;9.50;;;;;;;28.82;66.82;100481.11;1858294;77;20834;-74
2021/08/10 08:19:13;;;;;;;11.25;10.10;;;;;;;29.00;66.16;100476.34;1858081;77;21283;-75
2021/08/10 08:21:40;;;;;;;10.45;9.30;;;;;;;29.20;65.99;100473.01;1858362;76;21370;-75
2021/08/10 08:24:08;;;;;;;12.63;10.18;;;;;;;29.45;65.78;100464.91;1858272;77;20885;-74
2021/08/10 08:26:37;;;;;;;14.18;10.13;;;;;;;29.68;65.52;100454.89;1858008;77;20920;-73
2021/08/10 08:29:04;;;;;;;10.55;8.48;;;;;;;29.94;64.98;100457.02;1858241;77;20869;-73
2021/08/10 08:31:31;;;;;;;13.83;8.80;;;;;;;30.15;64.68;100456.58;1858397;77;21451;-72
2021/08/10 08:33:58;;;;;;;10.78;9.68;;;;;;;30.36;64.17;100456.67;1858165;77;20866;-72
2021/08/10 08:36:25;;;;;;;14.38;8.83;;;;;;;30.58;63.67;100456.20;1858555;76;20862;-73
2021/08/10 08:38:52;;;;;;;11.80;9.45;;;;;;;30.77;62.71;100453.77;1858094;76;21355;-74
2021/08/10 08:41:20;;;;;;;9.25;8.43;;;;;;;31.00;61.81;100458.17;1858151;77;20999;-75
2021/08/10 08:43:47;;;;;;;10.68;9.30;;;;;;;31.19;60.76;100454.30;1858284;77;21103;-75
2021/08/10 08:46:17;;;;;;;10.40;9.35;;;;;;;31.29;59.41;100457.28;1858011;77;20885;-74
2021/08/10 08:48:46;;;;;;;11.18;9.28;;;;;;;31.31;58.89;100457.87;1858355;76;20862;-73
2021/08/10 08:51:17;;;;;;;10.25;9.28;;;;;;;31.30;59.33;100452.68;1858365;77;20834;-73
2021/08/10 08:53:50;;;;;;;12.13;8.60;;;;;;;31.29;59.47;100455.11;1858062;77;21331;-73
2021/08/10 08:56:23;;;;;;;17.52;8.70;;;;;;;31.27;59.49;100453.16;1858079;76;21501;-73
2021/08/10 08:58:53;;;;;;;13.72;8.55;;;;;;;31.19;59.71;100446.18;1857822;77;20886;-73
2021/08/10 09:01:20;;;;;;;9.90;8.90;;;;;;;31.10;60.09;100445.69;1858008;77;20873;-75
2021/08/10 09:03:47;;;;;;;15.98;9.30;;;;;;;31.01;60.17;100436.78;1858181;76;21348;-73
2021/08/10 09:06:15;;;;;;;10.10;8.98;;;;;;;30.91;59.58;100439.53;1857903;77;20912;-74
2021/08/10 09:10:16;;;;;;;14.40;9.30;;;;;;;30.81;60.17;100433.80;1798669;79;22448;-74
2021/08/10 09:12:54;;;;;;;12.13;9.18;;;;;;;30.65;60.56;100437.16;1758290;81;20861;-74
2021/08/10 09:15:44;;;;;;;18.15;9.95;;;;;;;30.49;60.80;100436.74;1758289;81;21545;-73
2021/08/10 09:18:15;;;;;;;10.53;9.58;;;;;;;30.33;61.11;100436.84;1757732;81;21465;-76
2021/08/10 09:21:10;;;;;;;10.78;9.83;;;;;;;30.16;61.45;100430.36;1723887;83;21009;-74
2021/08/10 09:23:51;;;;;;;11.75;9.78;;;;;;;30.00;62.07;100426.91;1725027;83;20927;-74
2021/08/10 09:26:34;;;;;;;13.93;9.63;;;;;;;29.86;61.79;100421.64;1708150;83;20903;-74
2021/08/10 09:29:03;;;;;;;12.37;10.00;;;;;;;29.75;62.40;100423.20;1724891;82;22032;-74
2021/08/10 09:31:34;;;;;;;12.95;10.48;;;;;;;29.64;62.87;100414.45;1711086;84;20981;-75
2021/08/10 09:34:17;;;;;;;14.98;10.00;;;;;;;29.53;63.00;100411.95;1711440;83;20972;-74
2021/08/10 09:36:45;;;;;;;11.28;10.00;;;;;;;29.47;63.24;100411.48;1696901;84;20889;-74
2021/08/10 09:39:12;;;;;;;15.30;9.70;;;;;;;29.41;64.05;100412.89;1711363;83;21426;-75
2021/08/10 09:41:40;;;;;;;12.15;10.35;;;;;;;29.38;64.27;100412.00;1711157;84;21127;-75
2021/08/10 09:44:17;;;;;;;22.52;11.35;;;;;;;29.40;63.57;100408.55;1722456;83;20940;-73
2021/08/10 09:46:51;;;;;;;14.95;11.63;;;;;;;29.43;64.15;100402.69;1722458;83;20889;-72
2021/08/10 09:49:18;;;;;;;15.35;10.48;;;;;;;29.48;64.58;100409.09;1722357;83;20931;-74
2021/08/10 09:51:48;;;;;;;11.57;10.10;;;;;;;29.53;64.21;100405.73;1722362;83;20913;-72
2021/08/10 09:54:17;;;;;;;10.23;9.18;;;;;;;29.61;63.98;100405.42;1722401;83;21130;-75
2021/08/10 09:56:52;;;;;;;13.68;8.95;;;;;;;29.69;63.69;100406.52;1722136;83;20889;-73
2021/08/10 09:59:27;;;;;;;12.15;9.70;;;;;;;29.77;63.45;100404.07;1722368;83;20996;-73
2021/08/10 10:01:59;;;;;;;14.53;10.38;;;;;;;29.89;63.44;100403.61;1695449;83;21476;-74
2021/08/10 10:04:27;;;;;;;12.82;9.33;;;;;;;30.01;63.45;100399.62;1722260;83;20947;-73
2021/08/10 10:06:58;;;;;;;17.95;12.43;;;;;;;30.15;62.69;100395.72;1720664;83;21244;-72
2021/08/10 10:09:27;;;;;;;11.73;9.68;;;;;;;30.36;62.33;100397.14;1713934;83;20897;-73
2021/08/10 10:11:55;;;;;;;14.78;9.33;;;;;;;30.53;62.14;100397.34;1709015;84;20912;-74
2021/08/10 10:14:23;;;;;;;15.13;9.35;;;;;;;30.71;61.72;100400.52;1709024;84;20929;-74
2021/08/10 10:16:52;;;;;;;10.30;8.98;;;;;;;30.87;60.95;100397.71;1709183;83;21489;-72
2021/08/10 10:19:21;;;;;;;11.63;10.13;;;;;;;31.00;60.32;100393.98;1709061;84;21569;-71
2021/08/10 10:22:03;;;;;;;11.78;8.40;;;;;;;31.15;60.95;100391.66;1708525;83;20980;-71
2021/08/10 10:24:40;;;;;;;9.58;8.58;;;;;;;31.39;60.91;100388.94;1708536;84;20980;-72
2021/08/10 10:27:07;;;;;;;10.90;8.25;;;;;;;31.60;59.32;100388.39;1708524;84;21020;-73
2021/08/10 10:29:34;;;;;;;14.15;8.45;;;;;;;31.80;58.59;100387.19;1708554;83;20881;-72
2021/08/10 10:32:01;;;;;;;13.90;8.93;;;;;;;31.99;58.07;100386.52;1709221;83;21649;-72
2021/08/10 10:34:28;;;;;;;10.70;8.80;;;;;;;32.20;57.65;100377.73;1708691;84;20949;-72
2021/08/10 10:36:57;;;;;;;8.88;7.87;;;;;;;32.39;57.55;100370.76;1708719;83;20917;-72
2021/08/10 10:39:27;;;;;;;11.57;8.25;;;;;;;32.65;57.04;100369.37;1708666;83;20885;-71
2021/08/10 10:41:56;;;;;;;15.32;8.53;;;;;;;32.79;56.83;100367.16;1708383;83;20854;-71
2021/08/10 10:44:49;;;;;;;11.53;7.25;;;;;;;32.94;56.36;100359.81;1708588;83;21367;-71
2021/08/10 10:47:34;;;;;;;10.40;8.75;;;;;;;33.09;56.33;100360.09;1708958;83;20921;-70
2021/08/10 10:50:03;;;;;;;9.53;8.03;;;;;;;33.22;55.75;100361.66;1707664;84;20985;-71
2021/08/10 10:52:31;;;;;;;12.30;8.28;;;;;;;33.45;55.47;100354.64;1708700;84;20993;-71
2021/08/10 10:54:59;;;;;;;10.55;8.43;;;;;;;33.76;54.39;100352.36;1708734;84;21450;-71
2021/08/10 10:57:35;;;;;;;7.87;7.12;;;;;;;34.06;52.50;100349.20;1708844;83;21119;-72
2021/08/10 11:00:08;;;;;;;8.08;7.28;;;;;;;34.36;51.64;100338.38;1708616;83;20970;-72
2021/08/10 11:02:36;;;;;;;10.88;7.90;;;;;;;34.72;50.83;100346.91;1709129;83;21012;-72
2021/08/10 11:05:22;;;;;;;12.85;6.97;;;;;;;34.94;49.30;100341.92;1708491;84;20933;-72
2021/08/10 11:07:53;;;;;;;11.90;7.17;;;;;;;35.03;48.74;100338.98;1708896;83;20937;-71
2021/08/10 11:10:45;;;;;;;10.58;6.17;;;;;;;35.08;48.39;100339.86;1712990;83;21191;-72
2021/08/10 11:13:20;;;;;;;13.35;7.25;;;;;;;34.98;47.58;100345.77;1714348;83;20960;-72
2021/08/10 11:15:52;;;;;;;11.43;7.45;;;;;;;34.75;47.40;100346.41;1700334;83;21453;-71
2021/08/10 11:18:21;;;;;;;10.72;6.80;;;;;;;34.60;47.66;100347.06;1714339;83;20984;-71
2021/08/10 11:20:59;;;;;;;10.20;6.92;;;;;;;34.56;48.48;100351.92;1714574;83;20928;-71
2021/08/10 11:23:32;;;;;;;7.67;6.35;;;;;;;34.56;47.38;100345.11;1714056;83;21567;-72
2021/08/10 11:26:09;;;;;;;9.68;7.72;;;;;;;34.55;48.14;100342.09;1714316;83;20877;-69